<?xml version="1.0" encoding="UTF-8" standalone="no" ?>
<gpx xmlns="http://www.topografix.com/GPX/1/1" xmlns:xsi="http://www.w3.org/2001/XMLSchema-instance" xsi:schemaLocation="http://www.topografix.com/GPX/1/1 http://www.topografix.com/GPX/1/1/gpx.xsd" version="1.1" creator="VisuGPX - https://www.visugpx.com">
  <metadata>
    <name>Les derandiéres 2014</name>
    <desc><![CDATA[Trace AlpineQuest 11/08/2014 16:41:38]]></desc>
  </metadata>
  <trk>
    <name><![CDATA[les Derandieres 2014]]></name>
    <trkseg>
      <trkpt lat="45.41779" lon="6.36287">
        <ele>1557.8</ele>
        <time>2014-08-11T14:41:38Z</time>
      </trkpt>
      <trkpt lat="45.41747" lon="6.36302">
        <ele>1532.9</ele>
        <time>2014-08-11T14:41:49Z</time>
      </trkpt>
      <trkpt lat="45.41757" lon="6.36289">
        <ele>1536.9</ele>
        <time>2014-08-11T14:41:58Z</time>
      </trkpt>
      <trkpt lat="45.41769" lon="6.36288">
        <ele>1534.8</ele>
        <time>2014-08-11T14:42:07Z</time>
      </trkpt>
      <trkpt lat="45.4176" lon="6.36282">
        <ele>1530.2</ele>
        <time>2014-08-11T14:42:18Z</time>
      </trkpt>
      <trkpt lat="45.41748" lon="6.36294">
        <ele>1519.8</ele>
        <time>2014-08-11T14:42:33Z</time>
      </trkpt>
      <trkpt lat="45.4172" lon="6.36298">
        <ele>1514</ele>
        <time>2014-08-11T14:42:51Z</time>
      </trkpt>
      <trkpt lat="45.41704" lon="6.36376">
        <ele>1513.7</ele>
        <time>2014-08-11T14:47:57Z</time>
      </trkpt>
      <trkpt lat="45.41696" lon="6.36367">
        <ele>1514.2</ele>
        <time>2014-08-11T14:47:58Z</time>
      </trkpt>
      <trkpt lat="45.41704" lon="6.36358">
        <ele>1514.5</ele>
        <time>2014-08-11T14:48:07Z</time>
      </trkpt>
      <trkpt lat="45.41714" lon="6.36363">
        <ele>1514.7</ele>
        <time>2014-08-11T14:48:12Z</time>
      </trkpt>
      <trkpt lat="45.41748" lon="6.36391">
        <ele>1515.2</ele>
        <time>2014-08-11T14:48:39Z</time>
      </trkpt>
      <trkpt lat="45.4175" lon="6.3642">
        <ele>1515.5</ele>
        <time>2014-08-11T14:48:54Z</time>
      </trkpt>
      <trkpt lat="45.41759" lon="6.36416">
        <ele>1515.6</ele>
        <time>2014-08-11T14:49:00Z</time>
      </trkpt>
      <trkpt lat="45.41774" lon="6.3645">
        <ele>1515.8</ele>
        <time>2014-08-11T14:49:22Z</time>
      </trkpt>
      <trkpt lat="45.41863" lon="6.36502">
        <ele>1516.4</ele>
        <time>2014-08-11T14:49:51Z</time>
      </trkpt>
      <trkpt lat="45.4189" lon="6.36556">
        <ele>1517.9</ele>
        <time>2014-08-11T14:50:18Z</time>
      </trkpt>
      <trkpt lat="45.41911" lon="6.36576">
        <ele>1518.2</ele>
        <time>2014-08-11T14:50:29Z</time>
      </trkpt>
      <trkpt lat="45.4201" lon="6.36608">
        <ele>1519.5</ele>
        <time>2014-08-11T14:50:40Z</time>
      </trkpt>
      <trkpt lat="45.42053" lon="6.36647">
        <ele>1519.9</ele>
        <time>2014-08-11T14:50:46Z</time>
      </trkpt>
      <trkpt lat="45.42075" lon="6.36643">
        <ele>1520.1</ele>
        <time>2014-08-11T14:50:55Z</time>
      </trkpt>
      <trkpt lat="45.42096" lon="6.36658">
        <ele>1520.2</ele>
        <time>2014-08-11T14:50:58Z</time>
      </trkpt>
      <trkpt lat="45.42144" lon="6.36641">
        <ele>1521.9</ele>
        <time>2014-08-11T14:51:22Z</time>
      </trkpt>
      <trkpt lat="45.42168" lon="6.36663">
        <ele>1523.3</ele>
        <time>2014-08-11T14:51:39Z</time>
      </trkpt>
      <trkpt lat="45.42189" lon="6.36669">
        <ele>1524.2</ele>
        <time>2014-08-11T14:51:48Z</time>
      </trkpt>
      <trkpt lat="45.4219" lon="6.3664">
        <ele>1525.3</ele>
        <time>2014-08-11T14:51:58Z</time>
      </trkpt>
      <trkpt lat="45.42202" lon="6.36619">
        <ele>1526.1</ele>
        <time>2014-08-11T14:52:07Z</time>
      </trkpt>
      <trkpt lat="45.42189" lon="6.3655">
        <ele>1528.4</ele>
        <time>2014-08-11T14:52:32Z</time>
      </trkpt>
      <trkpt lat="45.42198" lon="6.36513">
        <ele>1529.9</ele>
        <time>2014-08-11T14:52:46Z</time>
      </trkpt>
      <trkpt lat="45.42259" lon="6.36469">
        <ele>1533.3</ele>
        <time>2014-08-11T14:53:14Z</time>
      </trkpt>
      <trkpt lat="45.42327" lon="6.36367">
        <ele>1539.9</ele>
        <time>2014-08-11T14:54:05Z</time>
      </trkpt>
      <trkpt lat="45.42383" lon="6.36335">
        <ele>1547.9</ele>
        <time>2014-08-11T14:54:36Z</time>
      </trkpt>
      <trkpt lat="45.42397" lon="6.36318">
        <ele>1553.6</ele>
        <time>2014-08-11T14:54:44Z</time>
      </trkpt>
      <trkpt lat="45.42389" lon="6.36292">
        <ele>1558.1</ele>
        <time>2014-08-11T14:54:53Z</time>
      </trkpt>
      <trkpt lat="45.42305" lon="6.36265">
        <ele>1568</ele>
        <time>2014-08-11T14:55:13Z</time>
      </trkpt>
      <trkpt lat="45.42297" lon="6.36254">
        <ele>1569.4</ele>
        <time>2014-08-11T14:55:16Z</time>
      </trkpt>
      <trkpt lat="45.42291" lon="6.36223">
        <ele>1572</ele>
        <time>2014-08-11T14:55:23Z</time>
      </trkpt>
      <trkpt lat="45.42304" lon="6.36183">
        <ele>1576.9</ele>
        <time>2014-08-11T14:55:36Z</time>
      </trkpt>
      <trkpt lat="45.42304" lon="6.36153">
        <ele>1579.9</ele>
        <time>2014-08-11T14:55:44Z</time>
      </trkpt>
      <trkpt lat="45.42294" lon="6.36144">
        <ele>1581.5</ele>
        <time>2014-08-11T14:55:48Z</time>
      </trkpt>
      <trkpt lat="45.42299" lon="6.36101">
        <ele>1586</ele>
        <time>2014-08-11T14:56:00Z</time>
      </trkpt>
      <trkpt lat="45.42284" lon="6.36078">
        <ele>1589.5</ele>
        <time>2014-08-11T14:56:09Z</time>
      </trkpt>
      <trkpt lat="45.423" lon="6.36036">
        <ele>1594.3</ele>
        <time>2014-08-11T14:56:22Z</time>
      </trkpt>
      <trkpt lat="45.42322" lon="6.36011">
        <ele>1597.4</ele>
        <time>2014-08-11T14:56:29Z</time>
      </trkpt>
      <trkpt lat="45.42373" lon="6.35984">
        <ele>1602.4</ele>
        <time>2014-08-11T14:56:37Z</time>
      </trkpt>
      <trkpt lat="45.42378" lon="6.35973">
        <ele>1611.9</ele>
        <time>2014-08-11T14:56:55Z</time>
      </trkpt>
      <trkpt lat="45.42387" lon="6.35969">
        <ele>1613.3</ele>
        <time>2014-08-11T14:57:01Z</time>
      </trkpt>
      <trkpt lat="45.42388" lon="6.35982">
        <ele>1615.3</ele>
        <time>2014-08-11T14:57:05Z</time>
      </trkpt>
      <trkpt lat="45.42351" lon="6.35955">
        <ele>1623.4</ele>
        <time>2014-08-11T14:57:31Z</time>
      </trkpt>
      <trkpt lat="45.42407" lon="6.35921">
        <ele>1628.4</ele>
        <time>2014-08-11T14:57:47Z</time>
      </trkpt>
      <trkpt lat="45.42455" lon="6.35868">
        <ele>1633.5</ele>
        <time>2014-08-11T14:58:02Z</time>
      </trkpt>
      <trkpt lat="45.42457" lon="6.35854">
        <ele>1634.6</ele>
        <time>2014-08-11T14:58:05Z</time>
      </trkpt>
      <trkpt lat="45.42442" lon="6.35833">
        <ele>1638.4</ele>
        <time>2014-08-11T14:58:14Z</time>
      </trkpt>
      <trkpt lat="45.42391" lon="6.35784">
        <ele>1641.5</ele>
        <time>2014-08-11T14:58:30Z</time>
      </trkpt>
      <trkpt lat="45.42424" lon="6.35739">
        <ele>1646.1</ele>
        <time>2014-08-11T14:58:40Z</time>
      </trkpt>
      <trkpt lat="45.42407" lon="6.3565">
        <ele>1648.5</ele>
        <time>2014-08-11T14:58:51Z</time>
      </trkpt>
      <trkpt lat="45.42408" lon="6.35605">
        <ele>1651.8</ele>
        <time>2014-08-11T14:59:00Z</time>
      </trkpt>
      <trkpt lat="45.42395" lon="6.35565">
        <ele>1654.1</ele>
        <time>2014-08-11T14:59:10Z</time>
      </trkpt>
      <trkpt lat="45.42407" lon="6.35505">
        <ele>1655.3</ele>
        <time>2014-08-11T14:59:20Z</time>
      </trkpt>
      <trkpt lat="45.42393" lon="6.3548">
        <ele>1655.1</ele>
        <time>2014-08-11T14:59:27Z</time>
      </trkpt>
      <trkpt lat="45.42365" lon="6.35458">
        <ele>1653.8</ele>
        <time>2014-08-11T14:59:32Z</time>
      </trkpt>
      <trkpt lat="45.42331" lon="6.35367">
        <ele>1649.4</ele>
        <time>2014-08-11T14:59:43Z</time>
      </trkpt>
      <trkpt lat="45.4227" lon="6.35314">
        <ele>1645.4</ele>
        <time>2014-08-11T14:59:52Z</time>
      </trkpt>
      <trkpt lat="45.42237" lon="6.35274">
        <ele>1642.6</ele>
        <time>2014-08-11T14:59:58Z</time>
      </trkpt>
      <trkpt lat="45.42242" lon="6.35261">
        <ele>1642</ele>
        <time>2014-08-11T15:00:02Z</time>
      </trkpt>
      <trkpt lat="45.42232" lon="6.3525">
        <ele>1640.8</ele>
        <time>2014-08-11T15:00:04Z</time>
      </trkpt>
      <trkpt lat="45.42125" lon="6.35166">
        <ele>1636.9</ele>
        <time>2014-08-11T15:00:17Z</time>
      </trkpt>
      <trkpt lat="45.42078" lon="6.35097">
        <ele>1631.2</ele>
        <time>2014-08-11T15:00:30Z</time>
      </trkpt>
      <trkpt lat="45.42068" lon="6.35102">
        <ele>1629.2</ele>
        <time>2014-08-11T15:00:39Z</time>
      </trkpt>
      <trkpt lat="45.42045" lon="6.35084">
        <ele>1628.7</ele>
        <time>2014-08-11T15:00:45Z</time>
      </trkpt>
      <trkpt lat="45.42025" lon="6.3503">
        <ele>1627.4</ele>
        <time>2014-08-11T15:00:53Z</time>
      </trkpt>
      <trkpt lat="45.41973" lon="6.34961">
        <ele>1621.6</ele>
        <time>2014-08-11T15:01:07Z</time>
      </trkpt>
      <trkpt lat="45.41946" lon="6.34949">
        <ele>1616.3</ele>
        <time>2014-08-11T15:01:13Z</time>
      </trkpt>
      <trkpt lat="45.41938" lon="6.34935">
        <ele>1611.3</ele>
        <time>2014-08-11T15:01:18Z</time>
      </trkpt>
      <trkpt lat="45.41851" lon="6.34862">
        <ele>1595.5</ele>
        <time>2014-08-11T15:01:36Z</time>
      </trkpt>
      <trkpt lat="45.41728" lon="6.34783">
        <ele>1560.9</ele>
        <time>2014-08-11T15:02:17Z</time>
      </trkpt>
      <trkpt lat="45.41723" lon="6.34732">
        <ele>1554.5</ele>
        <time>2014-08-11T15:02:26Z</time>
      </trkpt>
      <trkpt lat="45.41709" lon="6.34695">
        <ele>1552.1</ele>
        <time>2014-08-11T15:02:30Z</time>
      </trkpt>
      <trkpt lat="45.41634" lon="6.34592">
        <ele>1540.1</ele>
        <time>2014-08-11T15:02:46Z</time>
      </trkpt>
      <trkpt lat="45.41591" lon="6.34511">
        <ele>1533.6</ele>
        <time>2014-08-11T15:02:54Z</time>
      </trkpt>
      <trkpt lat="45.4158" lon="6.34467">
        <ele>1530.6</ele>
        <time>2014-08-11T15:02:58Z</time>
      </trkpt>
      <trkpt lat="45.41581" lon="6.3443">
        <ele>1527.7</ele>
        <time>2014-08-11T15:03:02Z</time>
      </trkpt>
      <trkpt lat="45.41597" lon="6.3438">
        <ele>1523.4</ele>
        <time>2014-08-11T15:03:08Z</time>
      </trkpt>
      <trkpt lat="45.41594" lon="6.34332">
        <ele>1521.4</ele>
        <time>2014-08-11T15:03:12Z</time>
      </trkpt>
      <trkpt lat="45.41541" lon="6.34211">
        <ele>1515</ele>
        <time>2014-08-11T15:03:25Z</time>
      </trkpt>
      <trkpt lat="45.41494" lon="6.34135">
        <ele>1511.7</ele>
        <time>2014-08-11T15:03:33Z</time>
      </trkpt>
      <trkpt lat="45.41443" lon="6.34142">
        <ele>1510.4</ele>
        <time>2014-08-11T15:03:36Z</time>
      </trkpt>
      <trkpt lat="45.41397" lon="6.34099">
        <ele>1508.1</ele>
        <time>2014-08-11T15:03:42Z</time>
      </trkpt>
      <trkpt lat="45.41324" lon="6.33946">
        <ele>1503.6</ele>
        <time>2014-08-11T15:03:54Z</time>
      </trkpt>
      <trkpt lat="45.41284" lon="6.33895">
        <ele>1501.6</ele>
        <time>2014-08-11T15:03:58Z</time>
      </trkpt>
      <trkpt lat="45.41246" lon="6.33757">
        <ele>1495.3</ele>
        <time>2014-08-11T15:04:06Z</time>
      </trkpt>
      <trkpt lat="45.41236" lon="6.33696">
        <ele>1488.2</ele>
        <time>2014-08-11T15:04:17Z</time>
      </trkpt>
      <trkpt lat="45.41216" lon="6.33683">
        <ele>1480.9</ele>
        <time>2014-08-11T15:04:28Z</time>
      </trkpt>
      <trkpt lat="45.41212" lon="6.3367">
        <ele>1477.3</ele>
        <time>2014-08-11T15:04:34Z</time>
      </trkpt>
      <trkpt lat="45.4123" lon="6.33651">
        <ele>1474.7</ele>
        <time>2014-08-11T15:04:37Z</time>
      </trkpt>
      <trkpt lat="45.41233" lon="6.33638">
        <ele>1470.5</ele>
        <time>2014-08-11T15:04:43Z</time>
      </trkpt>
      <trkpt lat="45.41238" lon="6.33582">
        <ele>1447.4</ele>
        <time>2014-08-11T15:05:10Z</time>
      </trkpt>
      <trkpt lat="45.41232" lon="6.33557">
        <ele>1441</ele>
        <time>2014-08-11T15:05:20Z</time>
      </trkpt>
      <trkpt lat="45.41215" lon="6.3354">
        <ele>1432.9</ele>
        <time>2014-08-11T15:05:31Z</time>
      </trkpt>
      <trkpt lat="45.41166" lon="6.33527">
        <ele>1418.3</ele>
        <time>2014-08-11T15:05:51Z</time>
      </trkpt>
      <trkpt lat="45.41155" lon="6.33528">
        <ele>1415.4</ele>
        <time>2014-08-11T15:05:55Z</time>
      </trkpt>
      <trkpt lat="45.41145" lon="6.33553">
        <ele>1410.8</ele>
        <time>2014-08-11T15:06:02Z</time>
      </trkpt>
      <trkpt lat="45.41104" lon="6.33537">
        <ele>1402.7</ele>
        <time>2014-08-11T15:06:22Z</time>
      </trkpt>
      <trkpt lat="45.41099" lon="6.33394">
        <ele>1394.5</ele>
        <time>2014-08-11T15:07:05Z</time>
      </trkpt>
      <trkpt lat="45.41036" lon="6.33297">
        <ele>1392.6</ele>
        <time>2014-08-11T15:07:29Z</time>
      </trkpt>
      <trkpt lat="45.41003" lon="6.33213">
        <ele>1393.2</ele>
        <time>2014-08-11T15:07:41Z</time>
      </trkpt>
      <trkpt lat="45.4098" lon="6.33215">
        <ele>1393.5</ele>
        <time>2014-08-11T15:07:43Z</time>
      </trkpt>
      <trkpt lat="45.40913" lon="6.33117">
        <ele>1395.6</ele>
        <time>2014-08-11T15:07:59Z</time>
      </trkpt>
      <trkpt lat="45.40821" lon="6.32913">
        <ele>1398.7</ele>
        <time>2014-08-11T15:08:34Z</time>
      </trkpt>
      <trkpt lat="45.40813" lon="6.32905">
        <ele>1399</ele>
        <time>2014-08-11T15:08:38Z</time>
      </trkpt>
      <trkpt lat="45.40797" lon="6.32912">
        <ele>1398.7</ele>
        <time>2014-08-11T15:08:40Z</time>
      </trkpt>
      <trkpt lat="45.408" lon="6.329">
        <ele>1398.3</ele>
        <time>2014-08-11T15:08:43Z</time>
      </trkpt>
      <trkpt lat="45.40791" lon="6.32903">
        <ele>1398</ele>
        <time>2014-08-11T15:08:45Z</time>
      </trkpt>
      <trkpt lat="45.40796" lon="6.32863">
        <ele>1398.5</ele>
        <time>2014-08-11T15:09:00Z</time>
      </trkpt>
      <trkpt lat="45.40783" lon="6.32846">
        <ele>1398.9</ele>
        <time>2014-08-11T15:09:08Z</time>
      </trkpt>
      <trkpt lat="45.40772" lon="6.32771">
        <ele>1399.9</ele>
        <time>2014-08-11T15:09:24Z</time>
      </trkpt>
      <trkpt lat="45.40757" lon="6.32783">
        <ele>1399.8</ele>
        <time>2014-08-11T15:09:29Z</time>
      </trkpt>
      <trkpt lat="45.40767" lon="6.32753">
        <ele>1399.6</ele>
        <time>2014-08-11T15:09:34Z</time>
      </trkpt>
      <trkpt lat="45.40744" lon="6.32642">
        <ele>1398</ele>
        <time>2014-08-11T15:10:18Z</time>
      </trkpt>
      <trkpt lat="45.40716" lon="6.32605">
        <ele>1398.3</ele>
        <time>2014-08-11T15:10:44Z</time>
      </trkpt>
      <trkpt lat="45.40682" lon="6.3259">
        <ele>1398.5</ele>
        <time>2014-08-11T15:11:05Z</time>
      </trkpt>
      <trkpt lat="45.40662" lon="6.32541">
        <ele>1398.6</ele>
        <time>2014-08-11T15:11:29Z</time>
      </trkpt>
      <trkpt lat="45.40614" lon="6.32533">
        <ele>1400.8</ele>
        <time>2014-08-11T15:12:09Z</time>
      </trkpt>
      <trkpt lat="45.40605" lon="6.32523">
        <ele>1400.8</ele>
        <time>2014-08-11T15:12:12Z</time>
      </trkpt>
      <trkpt lat="45.40643" lon="6.32527">
        <ele>1400.3</ele>
        <time>2014-08-11T15:12:22Z</time>
      </trkpt>
      <trkpt lat="45.40638" lon="6.3248">
        <ele>1399.6</ele>
        <time>2014-08-11T15:12:32Z</time>
      </trkpt>
      <trkpt lat="45.4065" lon="6.32466">
        <ele>1399.7</ele>
        <time>2014-08-11T15:12:35Z</time>
      </trkpt>
      <trkpt lat="45.40637" lon="6.32446">
        <ele>1400.4</ele>
        <time>2014-08-11T15:12:44Z</time>
      </trkpt>
      <trkpt lat="45.40679" lon="6.32444">
        <ele>1400.5</ele>
        <time>2014-08-11T15:12:57Z</time>
      </trkpt>
      <trkpt lat="45.40682" lon="6.32431">
        <ele>1400.5</ele>
        <time>2014-08-11T15:13:04Z</time>
      </trkpt>
      <trkpt lat="45.40717" lon="6.32439">
        <ele>1400.2</ele>
        <time>2014-08-11T15:13:12Z</time>
      </trkpt>
      <trkpt lat="45.40721" lon="6.32426">
        <ele>1400.1</ele>
        <time>2014-08-11T15:13:21Z</time>
      </trkpt>
      <trkpt lat="45.4073" lon="6.32343">
        <ele>1397.8</ele>
        <time>2014-08-11T15:13:47Z</time>
      </trkpt>
      <trkpt lat="45.40693" lon="6.32287">
        <ele>1397.1</ele>
        <time>2014-08-11T15:13:59Z</time>
      </trkpt>
      <trkpt lat="45.40688" lon="6.32247">
        <ele>1396.6</ele>
        <time>2014-08-11T15:14:08Z</time>
      </trkpt>
      <trkpt lat="45.40661" lon="6.32242">
        <ele>1396.3</ele>
        <time>2014-08-11T15:14:19Z</time>
      </trkpt>
      <trkpt lat="45.40623" lon="6.322">
        <ele>1395.4</ele>
        <time>2014-08-11T15:14:46Z</time>
      </trkpt>
      <trkpt lat="45.40598" lon="6.32209">
        <ele>1395.4</ele>
        <time>2014-08-11T15:14:52Z</time>
      </trkpt>
      <trkpt lat="45.40585" lon="6.32143">
        <ele>1395.3</ele>
        <time>2014-08-11T15:15:15Z</time>
      </trkpt>
      <trkpt lat="45.40555" lon="6.32123">
        <ele>1394.9</ele>
        <time>2014-08-11T15:15:27Z</time>
      </trkpt>
      <trkpt lat="45.40545" lon="6.32131">
        <ele>1395</ele>
        <time>2014-08-11T15:15:29Z</time>
      </trkpt>
      <trkpt lat="45.40516" lon="6.32115">
        <ele>1394.2</ele>
        <time>2014-08-11T15:15:43Z</time>
      </trkpt>
      <trkpt lat="45.40501" lon="6.3208">
        <ele>1393</ele>
        <time>2014-08-11T15:15:54Z</time>
      </trkpt>
      <trkpt lat="45.40473" lon="6.32063">
        <ele>1391</ele>
        <time>2014-08-11T15:16:15Z</time>
      </trkpt>
      <trkpt lat="45.40473" lon="6.32047">
        <ele>1390.8</ele>
        <time>2014-08-11T15:16:17Z</time>
      </trkpt>
      <trkpt lat="45.40457" lon="6.32024">
        <ele>1390.1</ele>
        <time>2014-08-11T15:16:24Z</time>
      </trkpt>
      <trkpt lat="45.40411" lon="6.32002">
        <ele>1388.9</ele>
        <time>2014-08-11T15:16:45Z</time>
      </trkpt>
      <trkpt lat="45.40388" lon="6.3197">
        <ele>1388.5</ele>
        <time>2014-08-11T15:16:56Z</time>
      </trkpt>
      <trkpt lat="45.40325" lon="6.31959">
        <ele>1388.3</ele>
        <time>2014-08-11T15:17:15Z</time>
      </trkpt>
      <trkpt lat="45.40272" lon="6.31887">
        <ele>1387.9</ele>
        <time>2014-08-11T15:17:23Z</time>
      </trkpt>
      <trkpt lat="45.40242" lon="6.31816">
        <ele>1387.5</ele>
        <time>2014-08-11T15:17:31Z</time>
      </trkpt>
      <trkpt lat="45.40195" lon="6.3174">
        <ele>1387.6</ele>
        <time>2014-08-11T15:17:43Z</time>
      </trkpt>
      <trkpt lat="45.40167" lon="6.31728">
        <ele>1387.4</ele>
        <time>2014-08-11T15:17:56Z</time>
      </trkpt>
      <trkpt lat="45.40144" lon="6.31702">
        <ele>1387.4</ele>
        <time>2014-08-11T15:18:14Z</time>
      </trkpt>
      <trkpt lat="45.40138" lon="6.3167">
        <ele>1388.3</ele>
        <time>2014-08-11T15:18:42Z</time>
      </trkpt>
      <trkpt lat="45.40144" lon="6.31577">
        <ele>1390.2</ele>
        <time>2014-08-11T15:19:10Z</time>
      </trkpt>
      <trkpt lat="45.40161" lon="6.31572">
        <ele>1390.8</ele>
        <time>2014-08-11T15:19:15Z</time>
      </trkpt>
      <trkpt lat="45.40151" lon="6.31576">
        <ele>1391.1</ele>
        <time>2014-08-11T15:19:23Z</time>
      </trkpt>
      <trkpt lat="45.40154" lon="6.31562">
        <ele>1391.5</ele>
        <time>2014-08-11T15:19:31Z</time>
      </trkpt>
      <trkpt lat="45.40197" lon="6.31545">
        <ele>1390</ele>
        <time>2014-08-11T15:19:34Z</time>
      </trkpt>
      <trkpt lat="45.40216" lon="6.31514">
        <ele>1388.7</ele>
        <time>2014-08-11T15:19:42Z</time>
      </trkpt>
      <trkpt lat="45.40217" lon="6.315">
        <ele>1388.2</ele>
        <time>2014-08-11T15:19:53Z</time>
      </trkpt>
      <trkpt lat="45.40232" lon="6.3152">
        <ele>1389</ele>
        <time>2014-08-11T15:20:00Z</time>
      </trkpt>
      <trkpt lat="45.40247" lon="6.31509">
        <ele>1389.7</ele>
        <time>2014-08-11T15:20:44Z</time>
      </trkpt>
      <trkpt lat="45.4024" lon="6.31485">
        <ele>1390.4</ele>
        <time>2014-08-11T15:20:59Z</time>
      </trkpt>
      <trkpt lat="45.40243" lon="6.31471">
        <ele>1391.2</ele>
        <time>2014-08-11T15:21:15Z</time>
      </trkpt>
      <trkpt lat="45.40261" lon="6.31424">
        <ele>1393.1</ele>
        <time>2014-08-11T15:21:55Z</time>
      </trkpt>
      <trkpt lat="45.40276" lon="6.31409">
        <ele>1394.2</ele>
        <time>2014-08-11T15:22:22Z</time>
      </trkpt>
      <trkpt lat="45.40275" lon="6.31369">
        <ele>1394.9</ele>
        <time>2014-08-11T15:22:42Z</time>
      </trkpt>
      <trkpt lat="45.40315" lon="6.3127">
        <ele>1397.8</ele>
        <time>2014-08-11T15:23:21Z</time>
      </trkpt>
      <trkpt lat="45.40303" lon="6.31247">
        <ele>1398.5</ele>
        <time>2014-08-11T15:23:27Z</time>
      </trkpt>
      <trkpt lat="45.4031" lon="6.31221">
        <ele>1398.9</ele>
        <time>2014-08-11T15:23:34Z</time>
      </trkpt>
      <trkpt lat="45.40274" lon="6.31199">
        <ele>1404.3</ele>
        <time>2014-08-11T15:23:54Z</time>
      </trkpt>
      <trkpt lat="45.40269" lon="6.31187">
        <ele>1407</ele>
        <time>2014-08-11T15:24:02Z</time>
      </trkpt>
      <trkpt lat="45.40294" lon="6.31215">
        <ele>1407.9</ele>
        <time>2014-08-11T15:24:40Z</time>
      </trkpt>
      <trkpt lat="45.40313" lon="6.3122">
        <ele>1407.5</ele>
        <time>2014-08-11T15:24:56Z</time>
      </trkpt>
      <trkpt lat="45.40302" lon="6.31166">
        <ele>1407.1</ele>
        <time>2014-08-11T15:25:11Z</time>
      </trkpt>
      <trkpt lat="45.40294" lon="6.31193">
        <ele>1408</ele>
        <time>2014-08-11T15:25:32Z</time>
      </trkpt>
      <trkpt lat="45.40264" lon="6.31167">
        <ele>1418.1</ele>
        <time>2014-08-11T15:26:03Z</time>
      </trkpt>
      <trkpt lat="45.40238" lon="6.31102">
        <ele>1424.4</ele>
        <time>2014-08-11T15:26:15Z</time>
      </trkpt>
      <trkpt lat="45.40227" lon="6.31047">
        <ele>1439</ele>
        <time>2014-08-11T15:26:34Z</time>
      </trkpt>
      <trkpt lat="45.40196" lon="6.31142">
        <ele>1448.5</ele>
        <time>2014-08-11T15:26:54Z</time>
      </trkpt>
      <trkpt lat="45.40152" lon="6.31172">
        <ele>1452.3</ele>
        <time>2014-08-11T15:27:03Z</time>
      </trkpt>
      <trkpt lat="45.40128" lon="6.31207">
        <ele>1457.5</ele>
        <time>2014-08-11T15:27:05Z</time>
      </trkpt>
      <trkpt lat="45.40114" lon="6.31211">
        <ele>1458.9</ele>
        <time>2014-08-11T15:27:07Z</time>
      </trkpt>
      <trkpt lat="45.40096" lon="6.31192">
        <ele>1459.4</ele>
        <time>2014-08-11T15:27:09Z</time>
      </trkpt>
      <trkpt lat="45.40054" lon="6.31105">
        <ele>1464.9</ele>
        <time>2014-08-11T15:27:18Z</time>
      </trkpt>
      <trkpt lat="45.39963" lon="6.31102">
        <ele>1470.8</ele>
        <time>2014-08-11T15:27:27Z</time>
      </trkpt>
      <trkpt lat="45.39909" lon="6.31047">
        <ele>1475.6</ele>
        <time>2014-08-11T15:27:34Z</time>
      </trkpt>
      <trkpt lat="45.3988" lon="6.30995">
        <ele>1481.2</ele>
        <time>2014-08-11T15:27:42Z</time>
      </trkpt>
      <trkpt lat="45.3989" lon="6.31023">
        <ele>1484.9</ele>
        <time>2014-08-11T15:27:51Z</time>
      </trkpt>
      <trkpt lat="45.39894" lon="6.31071">
        <ele>1487.5</ele>
        <time>2014-08-11T15:27:59Z</time>
      </trkpt>
      <trkpt lat="45.39863" lon="6.31">
        <ele>1494.4</ele>
        <time>2014-08-11T15:28:13Z</time>
      </trkpt>
      <trkpt lat="45.3979" lon="6.30946">
        <ele>1509.4</ele>
        <time>2014-08-11T15:28:55Z</time>
      </trkpt>
      <trkpt lat="45.39801" lon="6.30955">
        <ele>1517.8</ele>
        <time>2014-08-11T15:29:45Z</time>
      </trkpt>
      <trkpt lat="45.39808" lon="6.30966">
        <ele>1518.1</ele>
        <time>2014-08-11T15:29:58Z</time>
      </trkpt>
      <trkpt lat="45.39798" lon="6.3097">
        <ele>1516.7</ele>
        <time>2014-08-11T15:30:14Z</time>
      </trkpt>
      <trkpt lat="45.39789" lon="6.30959">
        <ele>1516.4</ele>
        <time>2014-08-11T15:30:21Z</time>
      </trkpt>
      <trkpt lat="45.39785" lon="6.30971">
        <ele>1518.7</ele>
        <time>2014-08-11T15:30:30Z</time>
      </trkpt>
      <trkpt lat="45.39776" lon="6.30972">
        <ele>1521.2</ele>
        <time>2014-08-11T15:30:37Z</time>
      </trkpt>
      <trkpt lat="45.39758" lon="6.30937">
        <ele>1519.5</ele>
        <time>2014-08-11T15:31:22Z</time>
      </trkpt>
      <trkpt lat="45.3974" lon="6.30936">
        <ele>1516.7</ele>
        <time>2014-08-11T15:31:36Z</time>
      </trkpt>
      <trkpt lat="45.39729" lon="6.30914">
        <ele>1511.7</ele>
        <time>2014-08-11T15:31:59Z</time>
      </trkpt>
      <trkpt lat="45.39701" lon="6.30918">
        <ele>1503.7</ele>
        <time>2014-08-11T15:32:31Z</time>
      </trkpt>
      <trkpt lat="45.39667" lon="6.30946">
        <ele>1502.7</ele>
        <time>2014-08-11T15:32:49Z</time>
      </trkpt>
      <trkpt lat="45.39591" lon="6.30939">
        <ele>1496.5</ele>
        <time>2014-08-11T15:33:15Z</time>
      </trkpt>
      <trkpt lat="45.39583" lon="6.30946">
        <ele>1496.1</ele>
        <time>2014-08-11T15:33:21Z</time>
      </trkpt>
      <trkpt lat="45.39545" lon="6.30914">
        <ele>1490.4</ele>
        <time>2014-08-11T15:33:39Z</time>
      </trkpt>
      <trkpt lat="45.39525" lon="6.30877">
        <ele>1486.6</ele>
        <time>2014-08-11T15:33:47Z</time>
      </trkpt>
      <trkpt lat="45.39514" lon="6.3088">
        <ele>1485.9</ele>
        <time>2014-08-11T15:33:50Z</time>
      </trkpt>
      <trkpt lat="45.39463" lon="6.30954">
        <ele>1479</ele>
        <time>2014-08-11T15:34:15Z</time>
      </trkpt>
      <trkpt lat="45.3943" lon="6.31182">
        <ele>1473.2</ele>
        <time>2014-08-11T15:34:43Z</time>
      </trkpt>
      <trkpt lat="45.39414" lon="6.31225">
        <ele>1470</ele>
        <time>2014-08-11T15:34:50Z</time>
      </trkpt>
      <trkpt lat="45.39385" lon="6.31286">
        <ele>1460.2</ele>
        <time>2014-08-11T15:35:06Z</time>
      </trkpt>
      <trkpt lat="45.39379" lon="6.31274">
        <ele>1445.9</ele>
        <time>2014-08-11T15:35:17Z</time>
      </trkpt>
      <trkpt lat="45.39365" lon="6.31272">
        <ele>1440.7</ele>
        <time>2014-08-11T15:35:22Z</time>
      </trkpt>
      <trkpt lat="45.39356" lon="6.31284">
        <ele>1439.2</ele>
        <time>2014-08-11T15:35:25Z</time>
      </trkpt>
      <trkpt lat="45.39357" lon="6.31315">
        <ele>1437.2</ele>
        <time>2014-08-11T15:35:30Z</time>
      </trkpt>
      <trkpt lat="45.39318" lon="6.31179">
        <ele>1424.7</ele>
        <time>2014-08-11T15:35:49Z</time>
      </trkpt>
      <trkpt lat="45.39275" lon="6.31099">
        <ele>1415.8</ele>
        <time>2014-08-11T15:35:57Z</time>
      </trkpt>
      <trkpt lat="45.39169" lon="6.31063">
        <ele>1405.7</ele>
        <time>2014-08-11T15:36:07Z</time>
      </trkpt>
      <trkpt lat="45.39063" lon="6.31063">
        <ele>1397.6</ele>
        <time>2014-08-11T15:36:15Z</time>
      </trkpt>
      <trkpt lat="45.39038" lon="6.31054">
        <ele>1395.6</ele>
        <time>2014-08-11T15:36:17Z</time>
      </trkpt>
      <trkpt lat="45.3895" lon="6.30974">
        <ele>1387</ele>
        <time>2014-08-11T15:36:25Z</time>
      </trkpt>
      <trkpt lat="45.38827" lon="6.30943">
        <ele>1376.7</ele>
        <time>2014-08-11T15:36:37Z</time>
      </trkpt>
      <trkpt lat="45.38778" lon="6.30902">
        <ele>1368.3</ele>
        <time>2014-08-11T15:36:47Z</time>
      </trkpt>
      <trkpt lat="45.38759" lon="6.30899">
        <ele>1364</ele>
        <time>2014-08-11T15:36:50Z</time>
      </trkpt>
      <trkpt lat="45.38738" lon="6.30854">
        <ele>1343.6</ele>
        <time>2014-08-11T15:37:03Z</time>
      </trkpt>
      <trkpt lat="45.38758" lon="6.30892">
        <ele>1284.9</ele>
        <time>2014-08-11T15:37:46Z</time>
      </trkpt>
      <trkpt lat="45.38769" lon="6.30915">
        <ele>1284.2</ele>
        <time>2014-08-11T15:37:54Z</time>
      </trkpt>
      <trkpt lat="45.38772" lon="6.30889">
        <ele>1279.2</ele>
        <time>2014-08-11T15:38:08Z</time>
      </trkpt>
      <trkpt lat="45.38752" lon="6.3084">
        <ele>1280.3</ele>
        <time>2014-08-11T15:38:27Z</time>
      </trkpt>
      <trkpt lat="45.38707" lon="6.30789">
        <ele>1286.1</ele>
        <time>2014-08-11T15:39:03Z</time>
      </trkpt>
      <trkpt lat="45.387" lon="6.30763">
        <ele>1289</ele>
        <time>2014-08-11T15:39:16Z</time>
      </trkpt>
      <trkpt lat="45.38646" lon="6.30709">
        <ele>1299.1</ele>
        <time>2014-08-11T15:39:57Z</time>
      </trkpt>
      <trkpt lat="45.38619" lon="6.3069">
        <ele>1302.3</ele>
        <time>2014-08-11T15:40:14Z</time>
      </trkpt>
      <trkpt lat="45.3857" lon="6.30677">
        <ele>1304.3</ele>
        <time>2014-08-11T15:40:39Z</time>
      </trkpt>
      <trkpt lat="45.38529" lon="6.30688">
        <ele>1305</ele>
        <time>2014-08-11T15:40:58Z</time>
      </trkpt>
      <trkpt lat="45.3849" lon="6.30686">
        <ele>1305.4</ele>
        <time>2014-08-11T15:41:14Z</time>
      </trkpt>
      <trkpt lat="45.3849" lon="6.30672">
        <ele>1305.7</ele>
        <time>2014-08-11T15:41:23Z</time>
      </trkpt>
      <trkpt lat="45.38529" lon="6.3066">
        <ele>1310.8</ele>
        <time>2014-08-11T15:41:47Z</time>
      </trkpt>
      <trkpt lat="45.38539" lon="6.30561">
        <ele>1320</ele>
        <time>2014-08-11T15:42:17Z</time>
      </trkpt>
      <trkpt lat="45.38534" lon="6.30515">
        <ele>1322.7</ele>
        <time>2014-08-11T15:42:32Z</time>
      </trkpt>
      <trkpt lat="45.38516" lon="6.30485">
        <ele>1327.3</ele>
        <time>2014-08-11T15:42:46Z</time>
      </trkpt>
      <trkpt lat="45.38507" lon="6.30447">
        <ele>1330.6</ele>
        <time>2014-08-11T15:43:09Z</time>
      </trkpt>
      <trkpt lat="45.38518" lon="6.30409">
        <ele>1332.2</ele>
        <time>2014-08-11T15:43:24Z</time>
      </trkpt>
      <trkpt lat="45.38523" lon="6.30306">
        <ele>1332.1</ele>
        <time>2014-08-11T15:43:42Z</time>
      </trkpt>
      <trkpt lat="45.3849" lon="6.30254">
        <ele>1332.7</ele>
        <time>2014-08-11T15:44:16Z</time>
      </trkpt>
      <trkpt lat="45.38499" lon="6.30254">
        <ele>1332.9</ele>
        <time>2014-08-11T15:44:32Z</time>
      </trkpt>
      <trkpt lat="45.38486" lon="6.30217">
        <ele>1335.6</ele>
        <time>2014-08-11T15:45:03Z</time>
      </trkpt>
      <trkpt lat="45.38484" lon="6.30176">
        <ele>1338.5</ele>
        <time>2014-08-11T15:45:26Z</time>
      </trkpt>
      <trkpt lat="45.38501" lon="6.30144">
        <ele>1346.1</ele>
        <time>2014-08-11T15:46:29Z</time>
      </trkpt>
      <trkpt lat="45.38478" lon="6.30166">
        <ele>1348.8</ele>
        <time>2014-08-11T15:47:04Z</time>
      </trkpt>
      <trkpt lat="45.38472" lon="6.30225">
        <ele>1349.4</ele>
        <time>2014-08-11T15:47:22Z</time>
      </trkpt>
      <trkpt lat="45.38481" lon="6.30248">
        <ele>1349.6</ele>
        <time>2014-08-11T15:47:28Z</time>
      </trkpt>
      <trkpt lat="45.38483" lon="6.30233">
        <ele>1349.7</ele>
        <time>2014-08-11T15:47:35Z</time>
      </trkpt>
      <trkpt lat="45.3847" lon="6.30192">
        <ele>1349.2</ele>
        <time>2014-08-11T15:47:55Z</time>
      </trkpt>
      <trkpt lat="45.38431" lon="6.30143">
        <ele>1348.5</ele>
        <time>2014-08-11T15:48:08Z</time>
      </trkpt>
      <trkpt lat="45.38394" lon="6.30114">
        <ele>1347.8</ele>
        <time>2014-08-11T15:48:20Z</time>
      </trkpt>
      <trkpt lat="45.38364" lon="6.30117">
        <ele>1346.6</ele>
        <time>2014-08-11T15:48:34Z</time>
      </trkpt>
      <trkpt lat="45.38314" lon="6.3014">
        <ele>1345.9</ele>
        <time>2014-08-11T15:48:50Z</time>
      </trkpt>
      <trkpt lat="45.38279" lon="6.30118">
        <ele>1345.5</ele>
        <time>2014-08-11T15:49:04Z</time>
      </trkpt>
      <trkpt lat="45.38215" lon="6.30103">
        <ele>1343.6</ele>
        <time>2014-08-11T15:49:17Z</time>
      </trkpt>
      <trkpt lat="45.3822" lon="6.30075">
        <ele>1342.2</ele>
        <time>2014-08-11T15:49:24Z</time>
      </trkpt>
      <trkpt lat="45.38204" lon="6.30056">
        <ele>1338.9</ele>
        <time>2014-08-11T15:49:37Z</time>
      </trkpt>
      <trkpt lat="45.38137" lon="6.30051">
        <ele>1336.9</ele>
        <time>2014-08-11T15:49:53Z</time>
      </trkpt>
      <trkpt lat="45.38113" lon="6.30062">
        <ele>1336.7</ele>
        <time>2014-08-11T15:50:00Z</time>
      </trkpt>
      <trkpt lat="45.38113" lon="6.30075">
        <ele>1331.9</ele>
        <time>2014-08-11T15:50:26Z</time>
      </trkpt>
      <trkpt lat="45.38104" lon="6.30073">
        <ele>1330.5</ele>
        <time>2014-08-11T15:50:32Z</time>
      </trkpt>
      <trkpt lat="45.38084" lon="6.30059">
        <ele>1325.8</ele>
        <time>2014-08-11T15:50:53Z</time>
      </trkpt>
      <trkpt lat="45.38076" lon="6.3002">
        <ele>1314.3</ele>
        <time>2014-08-11T15:51:13Z</time>
      </trkpt>
      <trkpt lat="45.38044" lon="6.29996">
        <ele>1306.5</ele>
        <time>2014-08-11T15:51:21Z</time>
      </trkpt>
      <trkpt lat="45.38019" lon="6.29982">
        <ele>1258.6</ele>
        <time>2014-08-11T15:52:44Z</time>
      </trkpt>
      <trkpt lat="45.37968" lon="6.30083">
        <ele>1255.6</ele>
        <time>2014-08-11T16:00:18Z</time>
      </trkpt>
      <trkpt lat="45.3796" lon="6.30132">
        <ele>1255.7</ele>
        <time>2014-08-11T16:00:24Z</time>
      </trkpt>
      <trkpt lat="45.37965" lon="6.3021">
        <ele>1256.2</ele>
        <time>2014-08-11T16:00:44Z</time>
      </trkpt>
      <trkpt lat="45.37958" lon="6.30236">
        <ele>1256.4</ele>
        <time>2014-08-11T16:00:52Z</time>
      </trkpt>
      <trkpt lat="45.37984" lon="6.30284">
        <ele>1256.9</ele>
        <time>2014-08-11T16:01:07Z</time>
      </trkpt>
      <trkpt lat="45.37973" lon="6.3029">
        <ele>1257.5</ele>
        <time>2014-08-11T16:01:14Z</time>
      </trkpt>
      <trkpt lat="45.37954" lon="6.30275">
        <ele>1258.4</ele>
        <time>2014-08-11T16:01:25Z</time>
      </trkpt>
      <trkpt lat="45.37893" lon="6.30283">
        <ele>1258.1</ele>
        <time>2014-08-11T16:01:44Z</time>
      </trkpt>
      <trkpt lat="45.37854" lon="6.30257">
        <ele>1258.1</ele>
        <time>2014-08-11T16:01:56Z</time>
      </trkpt>
      <trkpt lat="45.3783" lon="6.3028">
        <ele>1257.3</ele>
        <time>2014-08-11T16:02:10Z</time>
      </trkpt>
      <trkpt lat="45.37813" lon="6.30269">
        <ele>1256</ele>
        <time>2014-08-11T16:02:20Z</time>
      </trkpt>
      <trkpt lat="45.37793" lon="6.30279">
        <ele>1254.8</ele>
        <time>2014-08-11T16:02:30Z</time>
      </trkpt>
      <trkpt lat="45.37789" lon="6.30311">
        <ele>1251.8</ele>
        <time>2014-08-11T16:02:44Z</time>
      </trkpt>
      <trkpt lat="45.37748" lon="6.30355">
        <ele>1243.1</ele>
        <time>2014-08-11T16:03:19Z</time>
      </trkpt>
      <trkpt lat="45.37728" lon="6.30354">
        <ele>1240.4</ele>
        <time>2014-08-11T16:03:29Z</time>
      </trkpt>
      <trkpt lat="45.37689" lon="6.30327">
        <ele>1234.8</ele>
        <time>2014-08-11T16:03:43Z</time>
      </trkpt>
      <trkpt lat="45.37666" lon="6.30323">
        <ele>1233</ele>
        <time>2014-08-11T16:03:48Z</time>
      </trkpt>
      <trkpt lat="45.37659" lon="6.30331">
        <ele>1228.3</ele>
        <time>2014-08-11T16:03:56Z</time>
      </trkpt>
      <trkpt lat="45.37664" lon="6.30344">
        <ele>1225.9</ele>
        <time>2014-08-11T16:03:58Z</time>
      </trkpt>
      <trkpt lat="45.3766" lon="6.30359">
        <ele>1211.1</ele>
        <time>2014-08-11T16:04:20Z</time>
      </trkpt>
      <trkpt lat="45.37651" lon="6.30361">
        <ele>1198.3</ele>
        <time>2014-08-11T16:04:40Z</time>
      </trkpt>
      <trkpt lat="45.37623" lon="6.30368">
        <ele>1194.6</ele>
        <time>2014-08-11T16:04:53Z</time>
      </trkpt>
      <trkpt lat="45.37602" lon="6.30359">
        <ele>1191.9</ele>
        <time>2014-08-11T16:05:01Z</time>
      </trkpt>
      <trkpt lat="45.37603" lon="6.30386">
        <ele>1188.1</ele>
        <time>2014-08-11T16:05:12Z</time>
      </trkpt>
      <trkpt lat="45.37592" lon="6.30352">
        <ele>1182.9</ele>
        <time>2014-08-11T16:05:24Z</time>
      </trkpt>
      <trkpt lat="45.37581" lon="6.30355">
        <ele>1181.4</ele>
        <time>2014-08-11T16:05:28Z</time>
      </trkpt>
      <trkpt lat="45.37565" lon="6.30375">
        <ele>1179.1</ele>
        <time>2014-08-11T16:05:36Z</time>
      </trkpt>
      <trkpt lat="45.37553" lon="6.30407">
        <ele>1175.8</ele>
        <time>2014-08-11T16:05:49Z</time>
      </trkpt>
      <trkpt lat="45.37556" lon="6.30421">
        <ele>1175.3</ele>
        <time>2014-08-11T16:05:51Z</time>
      </trkpt>
      <trkpt lat="45.37575" lon="6.30431">
        <ele>1169.4</ele>
        <time>2014-08-11T16:06:05Z</time>
      </trkpt>
      <trkpt lat="45.37586" lon="6.30431">
        <ele>1145.5</ele>
        <time>2014-08-11T16:06:42Z</time>
      </trkpt>
      <trkpt lat="45.37574" lon="6.30431">
        <ele>1141.6</ele>
        <time>2014-08-11T16:06:47Z</time>
      </trkpt>
      <trkpt lat="45.37629" lon="6.30431">
        <ele>1132.4</ele>
        <time>2014-08-11T16:07:11Z</time>
      </trkpt>
      <trkpt lat="45.37636" lon="6.30442">
        <ele>1128.1</ele>
        <time>2014-08-11T16:07:28Z</time>
      </trkpt>
      <trkpt lat="45.37564" lon="6.30405">
        <ele>1121.7</ele>
        <time>2014-08-11T16:07:38Z</time>
      </trkpt>
      <trkpt lat="45.37542" lon="6.3041">
        <ele>1116.4</ele>
        <time>2014-08-11T16:07:46Z</time>
      </trkpt>
      <trkpt lat="45.37534" lon="6.30405">
        <ele>1109.3</ele>
        <time>2014-08-11T16:07:59Z</time>
      </trkpt>
      <trkpt lat="45.37516" lon="6.30419">
        <ele>1106.5</ele>
        <time>2014-08-11T16:08:08Z</time>
      </trkpt>
      <trkpt lat="45.37506" lon="6.30414">
        <ele>1105.3</ele>
        <time>2014-08-11T16:08:11Z</time>
      </trkpt>
      <trkpt lat="45.37514" lon="6.30425">
        <ele>1103.7</ele>
        <time>2014-08-11T16:08:24Z</time>
      </trkpt>
      <trkpt lat="45.37528" lon="6.3043">
        <ele>1070</ele>
        <time>2014-08-11T16:09:17Z</time>
      </trkpt>
      <trkpt lat="45.37516" lon="6.30405">
        <ele>1032.8</ele>
        <time>2014-08-11T16:09:34Z</time>
      </trkpt>
      <trkpt lat="45.37526" lon="6.30409">
        <ele>1030.2</ele>
        <time>2014-08-11T16:10:49Z</time>
      </trkpt>
      <trkpt lat="45.37511" lon="6.30424">
        <ele>1033.6</ele>
        <time>2014-08-11T16:11:34Z</time>
      </trkpt>
      <trkpt lat="45.37496" lon="6.30413">
        <ele>1032.1</ele>
        <time>2014-08-11T16:11:55Z</time>
      </trkpt>
      <trkpt lat="45.37478" lon="6.30423">
        <ele>1029.4</ele>
        <time>2014-08-11T16:12:08Z</time>
      </trkpt>
      <trkpt lat="45.37466" lon="6.30403">
        <ele>1028.5</ele>
        <time>2014-08-11T16:12:17Z</time>
      </trkpt>
      <trkpt lat="45.37462" lon="6.30356">
        <ele>1028.2</ele>
        <time>2014-08-11T16:12:30Z</time>
      </trkpt>
      <trkpt lat="45.3747" lon="6.30326">
        <ele>1027.2</ele>
        <time>2014-08-11T16:12:37Z</time>
      </trkpt>
      <trkpt lat="45.37458" lon="6.30322">
        <ele>1026.5</ele>
        <time>2014-08-11T16:12:39Z</time>
      </trkpt>
      <trkpt lat="45.37438" lon="6.3029">
        <ele>1018</ele>
        <time>2014-08-11T16:12:50Z</time>
      </trkpt>
      <trkpt lat="45.37416" lon="6.30295">
        <ele>1016.4</ele>
        <time>2014-08-11T16:12:55Z</time>
      </trkpt>
      <trkpt lat="45.3739" lon="6.30284">
        <ele>1015.7</ele>
        <time>2014-08-11T16:13:10Z</time>
      </trkpt>
      <trkpt lat="45.37368" lon="6.30291">
        <ele>1015.1</ele>
        <time>2014-08-11T16:13:20Z</time>
      </trkpt>
      <trkpt lat="45.37371" lon="6.30237">
        <ele>1014.7</ele>
        <time>2014-08-11T16:13:41Z</time>
      </trkpt>
      <trkpt lat="45.37364" lon="6.30213">
        <ele>1012.4</ele>
        <time>2014-08-11T16:13:57Z</time>
      </trkpt>
      <trkpt lat="45.3737" lon="6.30186">
        <ele>1012.2</ele>
        <time>2014-08-11T16:14:04Z</time>
      </trkpt>
      <trkpt lat="45.37361" lon="6.30162">
        <ele>1009.2</ele>
        <time>2014-08-11T16:14:15Z</time>
      </trkpt>
      <trkpt lat="45.37366" lon="6.30148">
        <ele>1007.8</ele>
        <time>2014-08-11T16:14:19Z</time>
      </trkpt>
      <trkpt lat="45.37349" lon="6.30134">
        <ele>1006.2</ele>
        <time>2014-08-11T16:14:23Z</time>
      </trkpt>
      <trkpt lat="45.37327" lon="6.30142">
        <ele>1006</ele>
        <time>2014-08-11T16:14:29Z</time>
      </trkpt>
      <trkpt lat="45.37303" lon="6.30167">
        <ele>1001.4</ele>
        <time>2014-08-11T16:14:45Z</time>
      </trkpt>
      <trkpt lat="45.37289" lon="6.30205">
        <ele>997</ele>
        <time>2014-08-11T16:15:06Z</time>
      </trkpt>
      <trkpt lat="45.37285" lon="6.30194">
        <ele>986.9</ele>
        <time>2014-08-11T16:15:32Z</time>
      </trkpt>
      <trkpt lat="45.37276" lon="6.30192">
        <ele>983.4</ele>
        <time>2014-08-11T16:15:42Z</time>
      </trkpt>
      <trkpt lat="45.37275" lon="6.30207">
        <ele>979.1</ele>
        <time>2014-08-11T16:15:53Z</time>
      </trkpt>
      <trkpt lat="45.37254" lon="6.30238">
        <ele>975.3</ele>
        <time>2014-08-11T16:16:05Z</time>
      </trkpt>
      <trkpt lat="45.37258" lon="6.30212">
        <ele>970.3</ele>
        <time>2014-08-11T16:16:15Z</time>
      </trkpt>
      <trkpt lat="45.37249" lon="6.30221">
        <ele>962.3</ele>
        <time>2014-08-11T16:16:46Z</time>
      </trkpt>
      <trkpt lat="45.3721" lon="6.30229">
        <ele>956.4</ele>
        <time>2014-08-11T16:17:23Z</time>
      </trkpt>
      <trkpt lat="45.37193" lon="6.30263">
        <ele>952.6</ele>
        <time>2014-08-11T16:17:47Z</time>
      </trkpt>
      <trkpt lat="45.37159" lon="6.30297">
        <ele>949.8</ele>
        <time>2014-08-11T16:18:10Z</time>
      </trkpt>
      <trkpt lat="45.37164" lon="6.30323">
        <ele>947.4</ele>
        <time>2014-08-11T16:18:18Z</time>
      </trkpt>
      <trkpt lat="45.37157" lon="6.30334">
        <ele>920.5</ele>
        <time>2014-08-11T16:18:43Z</time>
      </trkpt>
      <trkpt lat="45.37159" lon="6.30349">
        <ele>910.5</ele>
        <time>2014-08-11T16:18:51Z</time>
      </trkpt>
      <trkpt lat="45.37188" lon="6.30353">
        <ele>895.3</ele>
        <time>2014-08-11T16:19:14Z</time>
      </trkpt>
      <trkpt lat="45.37181" lon="6.30332">
        <ele>887.1</ele>
        <time>2014-08-11T16:20:05Z</time>
      </trkpt>
      <trkpt lat="45.37185" lon="6.30305">
        <ele>881</ele>
        <time>2014-08-11T16:20:36Z</time>
      </trkpt>
      <trkpt lat="45.37195" lon="6.30302">
        <ele>879.7</ele>
        <time>2014-08-11T16:20:46Z</time>
      </trkpt>
      <trkpt lat="45.37182" lon="6.30266">
        <ele>877.5</ele>
        <time>2014-08-11T16:21:16Z</time>
      </trkpt>
      <trkpt lat="45.37173" lon="6.30262">
        <ele>877.1</ele>
        <time>2014-08-11T16:21:22Z</time>
      </trkpt>
      <trkpt lat="45.37157" lon="6.30283">
        <ele>876.1</ele>
        <time>2014-08-11T16:21:30Z</time>
      </trkpt>
      <trkpt lat="45.37157" lon="6.30298">
        <ele>875.4</ele>
        <time>2014-08-11T16:21:35Z</time>
      </trkpt>
      <trkpt lat="45.37137" lon="6.30307">
        <ele>874</ele>
        <time>2014-08-11T16:21:45Z</time>
      </trkpt>
      <trkpt lat="45.37134" lon="6.30294">
        <ele>867.9</ele>
        <time>2014-08-11T16:22:07Z</time>
      </trkpt>
      <trkpt lat="45.37142" lon="6.30267">
        <ele>861.8</ele>
        <time>2014-08-11T16:22:29Z</time>
      </trkpt>
      <trkpt lat="45.37128" lon="6.30238">
        <ele>859.2</ele>
        <time>2014-08-11T16:22:44Z</time>
      </trkpt>
      <trkpt lat="45.37063" lon="6.30263">
        <ele>844.9</ele>
        <time>2014-08-11T16:23:51Z</time>
      </trkpt>
      <trkpt lat="45.37051" lon="6.30301">
        <ele>836.8</ele>
        <time>2014-08-11T16:24:18Z</time>
      </trkpt>
      <trkpt lat="45.36979" lon="6.30303">
        <ele>828.1</ele>
        <time>2014-08-11T16:24:37Z</time>
      </trkpt>
      <trkpt lat="45.3695" lon="6.30312">
        <ele>814.3</ele>
        <time>2014-08-11T16:25:24Z</time>
      </trkpt>
      <trkpt lat="45.36966" lon="6.30342">
        <ele>799</ele>
        <time>2014-08-11T16:25:37Z</time>
      </trkpt>
      <trkpt lat="45.36927" lon="6.30326">
        <ele>780.2</ele>
        <time>2014-08-11T16:26:12Z</time>
      </trkpt>
      <trkpt lat="45.36914" lon="6.30308">
        <ele>773.6</ele>
        <time>2014-08-11T16:26:24Z</time>
      </trkpt>
      <trkpt lat="45.36877" lon="6.30286">
        <ele>762</ele>
        <time>2014-08-11T16:27:03Z</time>
      </trkpt>
      <trkpt lat="45.36873" lon="6.30297">
        <ele>760.2</ele>
        <time>2014-08-11T16:27:14Z</time>
      </trkpt>
      <trkpt lat="45.36872" lon="6.30281">
        <ele>759.7</ele>
        <time>2014-08-11T16:27:17Z</time>
      </trkpt>
      <trkpt lat="45.36865" lon="6.30292">
        <ele>756.2</ele>
        <time>2014-08-11T16:27:23Z</time>
      </trkpt>
      <trkpt lat="45.36855" lon="6.30291">
        <ele>755.3</ele>
        <time>2014-08-11T16:27:29Z</time>
      </trkpt>
      <trkpt lat="45.3683" lon="6.3027">
        <ele>753.7</ele>
        <time>2014-08-11T16:27:38Z</time>
      </trkpt>
      <trkpt lat="45.36796" lon="6.30268">
        <ele>752.2</ele>
        <time>2014-08-11T16:27:49Z</time>
      </trkpt>
      <trkpt lat="45.36756" lon="6.30277">
        <ele>750.4</ele>
        <time>2014-08-11T16:28:01Z</time>
      </trkpt>
      <trkpt lat="45.36736" lon="6.30293">
        <ele>749.3</ele>
        <time>2014-08-11T16:28:08Z</time>
      </trkpt>
      <trkpt lat="45.36711" lon="6.30327">
        <ele>747.9</ele>
        <time>2014-08-11T16:28:17Z</time>
      </trkpt>
      <trkpt lat="45.36712" lon="6.30341">
        <ele>745.6</ele>
        <time>2014-08-11T16:28:19Z</time>
      </trkpt>
      <trkpt lat="45.36677" lon="6.30308">
        <ele>743.1</ele>
        <time>2014-08-11T16:28:30Z</time>
      </trkpt>
      <trkpt lat="45.36674" lon="6.3034">
        <ele>736.9</ele>
        <time>2014-08-11T16:28:42Z</time>
      </trkpt>
      <trkpt lat="45.36665" lon="6.30335">
        <ele>724.7</ele>
        <time>2014-08-11T16:29:06Z</time>
      </trkpt>
      <trkpt lat="45.36656" lon="6.30327">
        <ele>723.9</ele>
        <time>2014-08-11T16:29:13Z</time>
      </trkpt>
      <trkpt lat="45.36647" lon="6.30331">
        <ele>709.4</ele>
        <time>2014-08-11T16:30:10Z</time>
      </trkpt>
      <trkpt lat="45.36648" lon="6.30346">
        <ele>702.4</ele>
        <time>2014-08-11T16:30:26Z</time>
      </trkpt>
      <trkpt lat="45.36638" lon="6.30325">
        <ele>685.5</ele>
        <time>2014-08-11T16:31:34Z</time>
      </trkpt>
      <trkpt lat="45.36598" lon="6.30298">
        <ele>686.1</ele>
        <time>2014-08-11T16:31:55Z</time>
      </trkpt>
      <trkpt lat="45.36552" lon="6.30245">
        <ele>687.7</ele>
        <time>2014-08-11T16:33:07Z</time>
      </trkpt>
      <trkpt lat="45.36544" lon="6.3025">
        <ele>687.5</ele>
        <time>2014-08-11T16:33:16Z</time>
      </trkpt>
      <trkpt lat="45.36526" lon="6.3023">
        <ele>686.9</ele>
        <time>2014-08-11T16:33:28Z</time>
      </trkpt>
      <trkpt lat="45.36478" lon="6.30214">
        <ele>685.5</ele>
        <time>2014-08-11T16:34:16Z</time>
      </trkpt>
      <trkpt lat="45.36427" lon="6.30169">
        <ele>685.1</ele>
        <time>2014-08-11T16:34:31Z</time>
      </trkpt>
      <trkpt lat="45.36401" lon="6.30195">
        <ele>684.9</ele>
        <time>2014-08-11T16:34:42Z</time>
      </trkpt>
      <trkpt lat="45.36377" lon="6.30199">
        <ele>685</ele>
        <time>2014-08-11T16:34:46Z</time>
      </trkpt>
      <trkpt lat="45.36389" lon="6.30172">
        <ele>670.6</ele>
        <time>2014-08-11T16:38:39Z</time>
      </trkpt>
      <trkpt lat="45.36386" lon="6.30154">
        <ele>670.6</ele>
        <time>2014-08-11T16:38:42Z</time>
      </trkpt>
      <trkpt lat="45.36405" lon="6.30145">
        <ele>670.3</ele>
        <time>2014-08-11T16:38:45Z</time>
      </trkpt>
      <trkpt lat="45.36416" lon="6.30095">
        <ele>668.8</ele>
        <time>2014-08-11T16:38:55Z</time>
      </trkpt>
      <trkpt lat="45.36393" lon="6.30011">
        <ele>664.8</ele>
        <time>2014-08-11T16:39:11Z</time>
      </trkpt>
      <trkpt lat="45.36381" lon="6.30004">
        <ele>664.2</ele>
        <time>2014-08-11T16:39:13Z</time>
      </trkpt>
      <trkpt lat="45.36364" lon="6.29964">
        <ele>662</ele>
        <time>2014-08-11T16:39:21Z</time>
      </trkpt>
      <trkpt lat="45.36349" lon="6.29953">
        <ele>661.5</ele>
        <time>2014-08-11T16:39:24Z</time>
      </trkpt>
      <trkpt lat="45.36374" lon="6.29976">
        <ele>659.3</ele>
        <time>2014-08-11T16:39:39Z</time>
      </trkpt>
      <trkpt lat="45.36395" lon="6.29926">
        <ele>658.1</ele>
        <time>2014-08-11T16:39:49Z</time>
      </trkpt>
      <trkpt lat="45.36408" lon="6.29919">
        <ele>657.4</ele>
        <time>2014-08-11T16:39:53Z</time>
      </trkpt>
      <trkpt lat="45.36437" lon="6.29931">
        <ele>656.3</ele>
        <time>2014-08-11T16:39:56Z</time>
      </trkpt>
      <trkpt lat="45.36448" lon="6.2991">
        <ele>655.3</ele>
        <time>2014-08-11T16:40:03Z</time>
      </trkpt>
      <trkpt lat="45.36301" lon="6.2973">
        <ele>650.7</ele>
        <time>2014-08-11T16:40:38Z</time>
      </trkpt>
      <trkpt lat="45.36273" lon="6.29706">
        <ele>650.2</ele>
        <time>2014-08-11T16:40:42Z</time>
      </trkpt>
      <trkpt lat="45.36249" lon="6.29685">
        <ele>645.7</ele>
        <time>2014-08-11T16:40:53Z</time>
      </trkpt>
      <trkpt lat="45.36283" lon="6.297">
        <ele>641.1</ele>
        <time>2014-08-11T16:41:04Z</time>
      </trkpt>
      <trkpt lat="45.36258" lon="6.29675">
        <ele>641.3</ele>
        <time>2014-08-11T16:41:27Z</time>
      </trkpt>
      <trkpt lat="45.36268" lon="6.29677">
        <ele>641.2</ele>
        <time>2014-08-11T16:41:28Z</time>
      </trkpt>
      <trkpt lat="45.36276" lon="6.29698">
        <ele>636.2</ele>
        <time>2014-08-11T16:41:37Z</time>
      </trkpt>
      <trkpt lat="45.36255" lon="6.29653">
        <ele>623.9</ele>
        <time>2014-08-11T16:42:03Z</time>
      </trkpt>
      <trkpt lat="45.36223" lon="6.29642">
        <ele>622.6</ele>
        <time>2014-08-11T16:42:07Z</time>
      </trkpt>
      <trkpt lat="45.36198" lon="6.29648">
        <ele>621.5</ele>
        <time>2014-08-11T16:42:10Z</time>
      </trkpt>
      <trkpt lat="45.36089" lon="6.29719">
        <ele>616.1</ele>
        <time>2014-08-11T16:42:27Z</time>
      </trkpt>
      <trkpt lat="45.35928" lon="6.29848">
        <ele>612.4</ele>
        <time>2014-08-11T16:42:53Z</time>
      </trkpt>
      <trkpt lat="45.35969" lon="6.29873">
        <ele>611.5</ele>
        <time>2014-08-11T16:43:04Z</time>
      </trkpt>
      <trkpt lat="45.3595" lon="6.29867">
        <ele>610.9</ele>
        <time>2014-08-11T16:43:15Z</time>
      </trkpt>
      <trkpt lat="45.35941" lon="6.29866">
        <ele>602.5</ele>
        <time>2014-08-11T16:43:41Z</time>
      </trkpt>
      <trkpt lat="45.3595" lon="6.29857">
        <ele>583.3</ele>
        <time>2014-08-11T16:44:41Z</time>
      </trkpt>
      <trkpt lat="45.35945" lon="6.29883">
        <ele>574.8</ele>
        <time>2014-08-11T16:45:11Z</time>
      </trkpt>
      <trkpt lat="45.35949" lon="6.29871">
        <ele>572.3</ele>
        <time>2014-08-11T16:45:36Z</time>
      </trkpt>
      <trkpt lat="45.35964" lon="6.29889">
        <ele>569.8</ele>
        <time>2014-08-11T16:45:56Z</time>
      </trkpt>
      <trkpt lat="45.35994" lon="6.29893">
        <ele>568.6</ele>
        <time>2014-08-11T16:46:03Z</time>
      </trkpt>
      <trkpt lat="45.3605" lon="6.29879">
        <ele>567.6</ele>
        <time>2014-08-11T16:46:17Z</time>
      </trkpt>
      <trkpt lat="45.36095" lon="6.29849">
        <ele>566.2</ele>
        <time>2014-08-11T16:46:30Z</time>
      </trkpt>
    </trkseg>
  </trk>
</gpx>